sensor_id;sensor_type;location;lat;lon;timestamp;temperature;humidity
66670;DHT22;53568;52.164;4.472;2024-02-26T00:02:00;8.25;72.39
66670;DHT22;53568;52.164;4.472;2024-02-26T00:04:25;8.17;72.82
66670;DHT22;53568;52.164;4.472;2024-02-26T00:06:51;8.07;73.15
66670;DHT22;53568;52.164;4.472;2024-02-26T00:09:19;7.99;73.81
66670;DHT22;53568;52.164;4.472;2024-02-26T00:11:44;8.14;73.45
66670;DHT22;53568;52.164;4.472;2024-02-26T00:14:10;8.12;73.50
66670;DHT22;53568;52.164;4.472;2024-02-26T00:16:35;8.02;73.85
66670;DHT22;53568;52.164;4.472;2024-02-26T00:19:01;7.99;74.03
66670;DHT22;53568;52.164;4.472;2024-02-26T00:21:28;8.05;73.97
66670;DHT22;53568;52.164;4.472;2024-02-26T00:23:53;8.02;73.91
66670;DHT22;53568;52.164;4.472;2024-02-26T00:26:19;7.98;74.09
66670;DHT22;53568;52.164;4.472;2024-02-26T00:28:44;7.97;74.55
66670;DHT22;53568;52.164;4.472;2024-02-26T00:31:10;7.94;74.75
66670;DHT22;53568;52.164;4.472;2024-02-26T00:33:35;8.01;74.79
66670;DHT22;53568;52.164;4.472;2024-02-26T00:36:01;7.83;75.54
66670;DHT22;53568;52.164;4.472;2024-02-26T00:38:27;7.87;75.61
66670;DHT22;53568;52.164;4.472;2024-02-26T00:40:52;7.85;75.72
66670;DHT22;53568;52.164;4.472;2024-02-26T00:43:18;7.85;75.73
66670;DHT22;53568;52.164;4.472;2024-02-26T00:45:43;7.80;76.04
66670;DHT22;53568;52.164;4.472;2024-02-26T00:48:09;7.66;76.14
66670;DHT22;53568;52.164;4.472;2024-02-26T00:50:34;7.71;76.67
66670;DHT22;53568;52.164;4.472;2024-02-26T00:53:01;7.70;76.87
66670;DHT22;53568;52.164;4.472;2024-02-26T00:55:26;7.70;76.98
66670;DHT22;53568;52.164;4.472;2024-02-26T00:57:52;7.63;77.16
66670;DHT22;53568;52.164;4.472;2024-02-26T01:00:17;7.63;77.51
66670;DHT22;53568;52.164;4.472;2024-02-26T01:02:43;7.67;77.04
66670;DHT22;53568;52.164;4.472;2024-02-26T01:05:12;7.66;76.93
66670;DHT22;53568;52.164;4.472;2024-02-26T01:07:37;7.59;76.92
66670;DHT22;53568;52.164;4.472;2024-02-26T01:10:03;7.60;76.74
66670;DHT22;53568;52.164;4.472;2024-02-26T01:12:29;7.57;76.56
66670;DHT22;53568;52.164;4.472;2024-02-26T01:14:55;7.54;76.67
66670;DHT22;53568;52.164;4.472;2024-02-26T01:17:20;7.53;76.90
66670;DHT22;53568;52.164;4.472;2024-02-26T01:19:46;7.63;76.54
66670;DHT22;53568;52.164;4.472;2024-02-26T01:22:11;7.70;76.39
66670;DHT22;53568;52.164;4.472;2024-02-26T01:24:37;7.60;76.56
66670;DHT22;53568;52.164;4.472;2024-02-26T01:27:03;7.59;76.74
66670;DHT22;53568;52.164;4.472;2024-02-26T01:29:28;7.56;77.04
66670;DHT22;53568;52.164;4.472;2024-02-26T01:31:54;7.60;76.87
66670;DHT22;53568;52.164;4.472;2024-02-26T01:34:20;7.51;76.99
66670;DHT22;53568;52.164;4.472;2024-02-26T01:36:46;7.61;76.84
66670;DHT22;53568;52.164;4.472;2024-02-26T01:39:11;7.57;76.72
66670;DHT22;53568;52.164;4.472;2024-02-26T01:41:41;7.61;76.91
66670;DHT22;53568;52.164;4.472;2024-02-26T01:44:07;7.63;76.87
66670;DHT22;53568;52.164;4.472;2024-02-26T01:46:35;7.66;76.80
66670;DHT22;53568;52.164;4.472;2024-02-26T01:49:02;7.64;77.08
66670;DHT22;53568;52.164;4.472;2024-02-26T01:51:29;7.67;76.68
66670;DHT22;53568;52.164;4.472;2024-02-26T01:53:57;7.71;76.63
66670;DHT22;53568;52.164;4.472;2024-02-26T01:56:24;7.67;76.69
66670;DHT22;53568;52.164;4.472;2024-02-26T01:58:56;7.61;76.24
66670;DHT22;53568;52.164;4.472;2024-02-26T02:01:25;7.60;76.41
66670;DHT22;53568;52.164;4.472;2024-02-26T02:03:51;7.64;76.38
66670;DHT22;53568;52.164;4.472;2024-02-26T02:06:18;7.69;76.25
66670;DHT22;53568;52.164;4.472;2024-02-26T02:08:44;7.74;75.96
66670;DHT22;53568;52.164;4.472;2024-02-26T02:11:10;7.74;76.00
66670;DHT22;53568;52.164;4.472;2024-02-26T02:13:37;7.77;75.68
66670;DHT22;53568;52.164;4.472;2024-02-26T02:16:03;7.67;75.86
66670;DHT22;53568;52.164;4.472;2024-02-26T02:18:29;7.70;75.96
66670;DHT22;53568;52.164;4.472;2024-02-26T02:20:54;7.67;75.73
66670;DHT22;53568;52.164;4.472;2024-02-26T02:23:22;7.75;75.46
66670;DHT22;53568;52.164;4.472;2024-02-26T02:25:47;7.67;75.57
66670;DHT22;53568;52.164;4.472;2024-02-26T02:28:13;7.64;75.71
66670;DHT22;53568;52.164;4.472;2024-02-26T02:30:39;7.61;75.81
66670;DHT22;53568;52.164;4.472;2024-02-26T02:33:05;7.59;76.06
66670;DHT22;53568;52.164;4.472;2024-02-26T02:35:31;7.61;76.07
66670;DHT22;53568;52.164;4.472;2024-02-26T02:37:57;7.64;76.32
66670;DHT22;53568;52.164;4.472;2024-02-26T02:40:24;7.74;75.96
66670;DHT22;53568;52.164;4.472;2024-02-26T02:42:49;7.69;76.14
66670;DHT22;53568;52.164;4.472;2024-02-26T02:45:15;7.67;76.04
66670;DHT22;53568;52.164;4.472;2024-02-26T02:47:40;7.78;76.03
66670;DHT22;53568;52.164;4.472;2024-02-26T02:50:06;7.54;76.46
66670;DHT22;53568;52.164;4.472;2024-02-26T02:52:32;7.70;76.66
66670;DHT22;53568;52.164;4.472;2024-02-26T02:54:58;7.66;76.82
66670;DHT22;53568;52.164;4.472;2024-02-26T02:57:23;7.47;77.43
66670;DHT22;53568;52.164;4.472;2024-02-26T02:59:49;7.53;77.14
66670;DHT22;53568;52.164;4.472;2024-02-26T03:02:14;7.60;77.16
66670;DHT22;53568;52.164;4.472;2024-02-26T03:04:40;7.49;77.40
66670;DHT22;53568;52.164;4.472;2024-02-26T03:07:06;7.53;77.57
66670;DHT22;53568;52.164;4.472;2024-02-26T03:09:31;7.43;77.90
66670;DHT22;53568;52.164;4.472;2024-02-26T03:11:57;7.39;78.12
66670;DHT22;53568;52.164;4.472;2024-02-26T03:14:23;7.44;77.81
66670;DHT22;53568;52.164;4.472;2024-02-26T03:16:48;7.34;78.16
66670;DHT22;53568;52.164;4.472;2024-02-26T03:19:15;7.37;78.30
66670;DHT22;53568;52.164;4.472;2024-02-26T03:21:43;7.33;78.17
66670;DHT22;53568;52.164;4.472;2024-02-26T03:24:09;7.47;78.14
66670;DHT22;53568;52.164;4.472;2024-02-26T03:26:36;7.46;77.92
66670;DHT22;53568;52.164;4.472;2024-02-26T03:29:02;7.39;78.01
66670;DHT22;53568;52.164;4.472;2024-02-26T03:31:28;7.29;78.08
66670;DHT22;53568;52.164;4.472;2024-02-26T03:33:54;7.27;78.21
66670;DHT22;53568;52.164;4.472;2024-02-26T03:36:19;7.27;78.31
66670;DHT22;53568;52.164;4.472;2024-02-26T03:38:47;7.29;78.12
66670;DHT22;53568;52.164;4.472;2024-02-26T03:41:13;7.33;78.24
66670;DHT22;53568;52.164;4.472;2024-02-26T03:43:39;7.42;78.11
66670;DHT22;53568;52.164;4.472;2024-02-26T03:46:08;7.34;78.19
66670;DHT22;53568;52.164;4.472;2024-02-26T03:48:37;7.31;78.17
66670;DHT22;53568;52.164;4.472;2024-02-26T03:51:03;7.26;78.46
66670;DHT22;53568;52.164;4.472;2024-02-26T03:53:28;7.33;78.40
66670;DHT22;53568;52.164;4.472;2024-02-26T03:55:54;7.31;78.58
66670;DHT22;53568;52.164;4.472;2024-02-26T03:58:20;7.24;78.84
66670;DHT22;53568;52.164;4.472;2024-02-26T04:00:46;7.20;78.91
66670;DHT22;53568;52.164;4.472;2024-02-26T04:03:13;7.19;78.88
66670;DHT22;53568;52.164;4.472;2024-02-26T04:05:39;7.27;78.85
66670;DHT22;53568;52.164;4.472;2024-02-26T04:08:05;7.33;78.44
66670;DHT22;53568;52.164;4.472;2024-02-26T04:10:33;7.17;78.99
66670;DHT22;53568;52.164;4.472;2024-02-26T04:13:01;7.07;79.27
66670;DHT22;53568;52.164;4.472;2024-02-26T04:15:26;7.10;79.27
66670;DHT22;53568;52.164;4.472;2024-02-26T04:17:52;7.10;78.98
66670;DHT22;53568;52.164;4.472;2024-02-26T04:20:17;7.19;78.87
66670;DHT22;53568;52.164;4.472;2024-02-26T04:22:43;6.96;79.29
66670;DHT22;53568;52.164;4.472;2024-02-26T04:25:09;7.05;79.53
66670;DHT22;53568;52.164;4.472;2024-02-26T04:27:35;7.02;79.52
66670;DHT22;53568;52.164;4.472;2024-02-26T04:30:00;6.99;79.71
66670;DHT22;53568;52.164;4.472;2024-02-26T04:32:26;7.02;79.56
66670;DHT22;53568;52.164;4.472;2024-02-26T04:34:51;7.12;79.37
66670;DHT22;53568;52.164;4.472;2024-02-26T04:37:17;7.12;79.17
66670;DHT22;53568;52.164;4.472;2024-02-26T04:39:42;7.13;79.24
66670;DHT22;53568;52.164;4.472;2024-02-26T04:42:08;7.13;79.01
66670;DHT22;53568;52.164;4.472;2024-02-26T04:44:33;7.19;78.95
66670;DHT22;53568;52.164;4.472;2024-02-26T04:46:59;7.07;79.33
66670;DHT22;53568;52.164;4.472;2024-02-26T04:49:26;7.16;78.93
66670;DHT22;53568;52.164;4.472;2024-02-26T04:51:52;7.13;78.99
66670;DHT22;53568;52.164;4.472;2024-02-26T04:54:17;7.03;79.42
66670;DHT22;53568;52.164;4.472;2024-02-26T04:56:43;7.13;79.31
66670;DHT22;53568;52.164;4.472;2024-02-26T04:59:09;7.10;79.60
66670;DHT22;53568;52.164;4.472;2024-02-26T05:01:35;7.05;79.54
66670;DHT22;53568;52.164;4.472;2024-02-26T05:04:02;6.99;79.93
66670;DHT22;53568;52.164;4.472;2024-02-26T05:06:28;6.92;80.40
66670;DHT22;53568;52.164;4.472;2024-02-26T05:08:54;6.85;80.47
66670;DHT22;53568;52.164;4.472;2024-02-26T05:11:20;6.74;80.82
66670;DHT22;53568;52.164;4.472;2024-02-26T05:13:45;6.88;80.42
66670;DHT22;53568;52.164;4.472;2024-02-26T05:16:11;6.95;80.49
66670;DHT22;53568;52.164;4.472;2024-02-26T05:18:36;6.86;80.85
66670;DHT22;53568;52.164;4.472;2024-02-26T05:21:02;6.89;80.74
66670;DHT22;53568;52.164;4.472;2024-02-26T05:23:28;6.82;81.06
66670;DHT22;53568;52.164;4.472;2024-02-26T05:25:54;6.91;80.65
66670;DHT22;53568;52.164;4.472;2024-02-26T05:28:19;6.91;80.63
66670;DHT22;53568;52.164;4.472;2024-02-26T05:30:46;6.85;80.67
66670;DHT22;53568;52.164;4.472;2024-02-26T05:33:11;6.79;80.83
66670;DHT22;53568;52.164;4.472;2024-02-26T05:35:37;6.58;81.51
66670;DHT22;53568;52.164;4.472;2024-02-26T05:38:03;6.69;81.55
66670;DHT22;53568;52.164;4.472;2024-02-26T05:40:29;6.65;81.61
66670;DHT22;53568;52.164;4.472;2024-02-26T05:42:55;6.65;81.37
66670;DHT22;53568;52.164;4.472;2024-02-26T05:45:21;6.68;81.69
66670;DHT22;53568;52.164;4.472;2024-02-26T05:47:47;6.64;81.71
66670;DHT22;53568;52.164;4.472;2024-02-26T05:50:13;6.62;81.75
66670;DHT22;53568;52.164;4.472;2024-02-26T05:52:40;6.59;82.01
66670;DHT22;53568;52.164;4.472;2024-02-26T05:55:06;6.59;81.93
66670;DHT22;53568;52.164;4.472;2024-02-26T05:57:33;6.54;82.13
66670;DHT22;53568;52.164;4.472;2024-02-26T05:59:59;6.68;82.01
66670;DHT22;53568;52.164;4.472;2024-02-26T06:02:29;6.67;81.54
66670;DHT22;53568;52.164;4.472;2024-02-26T06:04:55;6.68;81.75
66670;DHT22;53568;52.164;4.472;2024-02-26T06:07:20;6.71;81.78
66670;DHT22;53568;52.164;4.472;2024-02-26T06:09:46;6.68;81.30
66670;DHT22;53568;52.164;4.472;2024-02-26T06:12:11;6.75;81.22
66670;DHT22;53568;52.164;4.472;2024-02-26T06:14:37;6.69;81.44
66670;DHT22;53568;52.164;4.472;2024-02-26T06:17:02;6.69;81.51
66670;DHT22;53568;52.164;4.472;2024-02-26T06:19:31;6.75;81.34
66670;DHT22;53568;52.164;4.472;2024-02-26T06:21:56;6.64;81.75
66670;DHT22;53568;52.164;4.472;2024-02-26T06:24:22;6.74;81.81
66670;DHT22;53568;52.164;4.472;2024-02-26T06:26:48;6.75;81.61
66670;DHT22;53568;52.164;4.472;2024-02-26T06:29:14;6.49;82.21
66670;DHT22;53568;52.164;4.472;2024-02-26T06:31:40;6.65;82.33
66670;DHT22;53568;52.164;4.472;2024-02-26T06:34:05;6.64;81.91
66670;DHT22;53568;52.164;4.472;2024-02-26T06:36:31;6.62;82.25
66670;DHT22;53568;52.164;4.472;2024-02-26T06:38:57;6.61;81.92
66670;DHT22;53568;52.164;4.472;2024-02-26T06:41:23;6.48;82.06
66670;DHT22;53568;52.164;4.472;2024-02-26T06:43:56;6.59;81.77
66670;DHT22;53568;52.164;4.472;2024-02-26T06:46:22;6.41;82.01
66670;DHT22;53568;52.164;4.472;2024-02-26T06:48:49;6.49;82.08
66670;DHT22;53568;52.164;4.472;2024-02-26T06:51:14;6.41;82.32
66670;DHT22;53568;52.164;4.472;2024-02-26T06:53:40;6.28;82.64
66670;DHT22;53568;52.164;4.472;2024-02-26T06:56:06;6.42;82.35
66670;DHT22;53568;52.164;4.472;2024-02-26T06:58:31;6.38;82.18
66670;DHT22;53568;52.164;4.472;2024-02-26T07:00:57;6.31;82.55
66670;DHT22;53568;52.164;4.472;2024-02-26T07:03:22;6.31;82.21
66670;DHT22;53568;52.164;4.472;2024-02-26T07:05:48;6.30;82.10
66670;DHT22;53568;52.164;4.472;2024-02-26T07:08:14;6.37;81.94
66670;DHT22;53568;52.164;4.472;2024-02-26T07:10:39;6.40;81.96
66670;DHT22;53568;52.164;4.472;2024-02-26T07:13:05;6.24;82.55
66670;DHT22;53568;52.164;4.472;2024-02-26T07:15:30;6.42;82.20
66670;DHT22;53568;52.164;4.472;2024-02-26T07:17:57;6.45;82.00
66670;DHT22;53568;52.164;4.472;2024-02-26T07:20:28;6.48;81.87
66670;DHT22;53568;52.164;4.472;2024-02-26T07:22:54;6.38;82.26
66670;DHT22;53568;52.164;4.472;2024-02-26T07:25:19;6.41;82.11
66670;DHT22;53568;52.164;4.472;2024-02-26T07:27:46;6.37;82.08
66670;DHT22;53568;52.164;4.472;2024-02-26T07:30:12;6.40;82.22
66670;DHT22;53568;52.164;4.472;2024-02-26T07:32:38;6.49;81.69
66670;DHT22;53568;52.164;4.472;2024-02-26T07:35:04;6.46;81.43
66670;DHT22;53568;52.164;4.472;2024-02-26T07:37:30;6.42;81.60
66670;DHT22;53568;52.164;4.472;2024-02-26T07:39:56;6.46;81.08
66670;DHT22;53568;52.164;4.472;2024-02-26T07:42:21;6.41;81.17
66670;DHT22;53568;52.164;4.472;2024-02-26T07:44:47;6.44;80.95
66670;DHT22;53568;52.164;4.472;2024-02-26T07:47:12;6.37;81.19
66670;DHT22;53568;52.164;4.472;2024-02-26T07:49:39;6.40;81.70
66670;DHT22;53568;52.164;4.472;2024-02-26T07:52:05;6.49;81.54
66670;DHT22;53568;52.164;4.472;2024-02-26T07:54:30;6.48;81.05
66670;DHT22;53568;52.164;4.472;2024-02-26T07:56:56;6.38;81.04
66670;DHT22;53568;52.164;4.472;2024-02-26T07:59:21;6.46;80.89
66670;DHT22;53568;52.164;4.472;2024-02-26T08:01:51;6.34;81.42
66670;DHT22;53568;52.164;4.472;2024-02-26T08:04:17;6.44;80.83
66670;DHT22;53568;52.164;4.472;2024-02-26T08:06:42;6.34;81.20
66670;DHT22;53568;52.164;4.472;2024-02-26T08:09:08;6.18;81.49
66670;DHT22;53568;52.164;4.472;2024-02-26T08:11:34;6.32;81.28
66670;DHT22;53568;52.164;4.472;2024-02-26T08:14:00;6.38;81.15
66670;DHT22;53568;52.164;4.472;2024-02-26T08:16:25;6.32;81.33
66670;DHT22;53568;52.164;4.472;2024-02-26T08:18:51;6.28;81.34
66670;DHT22;53568;52.164;4.472;2024-02-26T08:21:16;6.41;81.28
66670;DHT22;53568;52.164;4.472;2024-02-26T08:23:43;6.21;81.41
66670;DHT22;53568;52.164;4.472;2024-02-26T08:26:09;6.35;81.13
66670;DHT22;53568;52.164;4.472;2024-02-26T08:28:39;6.49;80.82
66670;DHT22;53568;52.164;4.472;2024-02-26T08:31:05;6.52;80.35
66670;DHT22;53568;52.164;4.472;2024-02-26T08:33:31;6.55;80.14
66670;DHT22;53568;52.164;4.472;2024-02-26T08:35:56;6.41;80.68
66670;DHT22;53568;52.164;4.472;2024-02-26T08:38:22;6.42;80.45
66670;DHT22;53568;52.164;4.472;2024-02-26T08:40:48;6.49;80.01
66670;DHT22;53568;52.164;4.472;2024-02-26T08:43:14;6.25;80.46
66670;DHT22;53568;52.164;4.472;2024-02-26T08:45:42;6.20;80.59
66670;DHT22;53568;52.164;4.472;2024-02-26T08:48:08;6.16;80.56
66670;DHT22;53568;52.164;4.472;2024-02-26T08:50:34;6.22;80.69
66670;DHT22;53568;52.164;4.472;2024-02-26T08:52:59;6.40;80.23
66670;DHT22;53568;52.164;4.472;2024-02-26T08:55:26;6.27;80.40
66670;DHT22;53568;52.164;4.472;2024-02-26T08:57:52;6.21;80.02
66670;DHT22;53568;52.164;4.472;2024-02-26T09:00:17;6.25;80.13
66670;DHT22;53568;52.164;4.472;2024-02-26T09:02:48;6.24;80.13
66670;DHT22;53568;52.164;4.472;2024-02-26T09:05:14;6.38;79.75
66670;DHT22;53568;52.164;4.472;2024-02-26T09:07:40;6.46;79.47
66670;DHT22;53568;52.164;4.472;2024-02-26T09:10:06;6.56;79.27
66670;DHT22;53568;52.164;4.472;2024-02-26T09:12:34;6.62;78.72
66670;DHT22;53568;52.164;4.472;2024-02-26T09:14:59;6.52;79.26
66670;DHT22;53568;52.164;4.472;2024-02-26T09:17:25;6.48;79.40
66670;DHT22;53568;52.164;4.472;2024-02-26T09:19:53;6.52;79.31
66670;DHT22;53568;52.164;4.472;2024-02-26T09:22:18;6.54;79.27
66670;DHT22;53568;52.164;4.472;2024-02-26T09:24:44;6.61;79.05
66670;DHT22;53568;52.164;4.472;2024-02-26T09:27:09;6.48;79.29
66670;DHT22;53568;52.164;4.472;2024-02-26T09:29:35;6.49;79.63
66670;DHT22;53568;52.164;4.472;2024-02-26T09:32:01;6.48;79.70
66670;DHT22;53568;52.164;4.472;2024-02-26T09:34:26;6.56;79.32
66670;DHT22;53568;52.164;4.472;2024-02-26T09:36:52;6.55;79.43
66670;DHT22;53568;52.164;4.472;2024-02-26T09:39:17;6.55;79.10
66670;DHT22;53568;52.164;4.472;2024-02-26T09:41:47;6.54;79.40
66670;DHT22;53568;52.164;4.472;2024-02-26T09:44:19;6.44;79.67
66670;DHT22;53568;52.164;4.472;2024-02-26T09:46:48;6.61;79.47
66670;DHT22;53568;52.164;4.472;2024-02-26T09:49:17;6.56;79.41
66670;DHT22;53568;52.164;4.472;2024-02-26T09:51:43;6.52;79.42
66670;DHT22;53568;52.164;4.472;2024-02-26T09:54:10;6.62;79.38
66670;DHT22;53568;52.164;4.472;2024-02-26T09:56:39;6.68;79.14
66670;DHT22;53568;52.164;4.472;2024-02-26T09:59:17;6.68;79.10
66670;DHT22;53568;52.164;4.472;2024-02-26T10:01:44;6.55;79.56
66670;DHT22;53568;52.164;4.472;2024-02-26T10:04:11;6.59;79.34
66670;DHT22;53568;52.164;4.472;2024-02-26T10:06:37;6.54;79.32
66670;DHT22;53568;52.164;4.472;2024-02-26T10:09:03;6.52;79.32
66670;DHT22;53568;52.164;4.472;2024-02-26T10:11:33;6.52;79.26
66670;DHT22;53568;52.164;4.472;2024-02-26T10:13:58;6.55;78.91
66670;DHT22;53568;52.164;4.472;2024-02-26T10:16:28;6.71;78.64
66670;DHT22;53568;52.164;4.472;2024-02-26T10:18:54;6.78;78.44
66670;DHT22;53568;52.164;4.472;2024-02-26T10:21:20;6.85;78.34
66670;DHT22;53568;52.164;4.472;2024-02-26T10:23:47;6.74;78.27
66670;DHT22;53568;52.164;4.472;2024-02-26T10:26:14;6.81;78.07
66670;DHT22;53568;52.164;4.472;2024-02-26T10:28:43;6.84;77.92
66670;DHT22;53568;52.164;4.472;2024-02-26T10:31:10;7.03;77.44
66670;DHT22;53568;52.164;4.472;2024-02-26T10:33:37;6.99;77.40
66670;DHT22;53568;52.164;4.472;2024-02-26T10:36:07;6.97;77.46
66670;DHT22;53568;52.164;4.472;2024-02-26T10:38:34;7.09;77.13
66670;DHT22;53568;52.164;4.472;2024-02-26T10:41:04;7.12;76.89
66670;DHT22;53568;52.164;4.472;2024-02-26T10:43:31;6.99;77.09
66670;DHT22;53568;52.164;4.472;2024-02-26T10:45:58;7.13;77.06
66670;DHT22;53568;52.164;4.472;2024-02-26T10:48:24;7.12;77.02
66670;DHT22;53568;52.164;4.472;2024-02-26T10:50:49;7.13;76.95
66670;DHT22;53568;52.164;4.472;2024-02-26T10:53:23;6.99;77.15
66670;DHT22;53568;52.164;4.472;2024-02-26T10:56:03;6.95;77.23
66670;DHT22;53568;52.164;4.472;2024-02-26T10:58:31;7.09;76.44
66670;DHT22;53568;52.164;4.472;2024-02-26T11:00:57;7.10;76.16
66670;DHT22;53568;52.164;4.472;2024-02-26T11:03:24;7.00;76.53
66670;DHT22;53568;52.164;4.472;2024-02-26T11:05:50;6.99;76.15
66670;DHT22;53568;52.164;4.472;2024-02-26T11:08:19;7.05;76.08
66670;DHT22;53568;52.164;4.472;2024-02-26T11:10:53;7.00;76.38
66670;DHT22;53568;52.164;4.472;2024-02-26T11:13:19;7.05;76.44
66670;DHT22;53568;52.164;4.472;2024-02-26T11:15:47;7.12;76.49
66670;DHT22;53568;52.164;4.472;2024-02-26T11:18:15;7.27;76.25
66670;DHT22;53568;52.164;4.472;2024-02-26T11:20:43;7.19;75.92
66670;DHT22;53568;52.164;4.472;2024-02-26T11:23:09;7.20;75.90
66670;DHT22;53568;52.164;4.472;2024-02-26T11:25:36;7.24;75.55
66670;DHT22;53568;52.164;4.472;2024-02-26T11:28:06;7.39;75.31
66670;DHT22;53568;52.164;4.472;2024-02-26T11:30:37;7.29;75.57
66670;DHT22;53568;52.164;4.472;2024-02-26T11:33:06;7.24;75.32
66670;DHT22;53568;52.164;4.472;2024-02-26T11:35:35;7.10;75.59
66670;DHT22;53568;52.164;4.472;2024-02-26T11:38:01;7.07;75.49
66670;DHT22;53568;52.164;4.472;2024-02-26T11:40:27;7.10;75.95
66670;DHT22;53568;52.164;4.472;2024-02-26T11:42:54;7.23;75.17
66670;DHT22;53568;52.164;4.472;2024-02-26T11:45:48;7.30;75.44
66670;DHT22;53568;52.164;4.472;2024-02-26T11:48:16;7.17;75.64
66670;DHT22;53568;52.164;4.472;2024-02-26T11:50:50;7.19;75.84
66670;DHT22;53568;52.164;4.472;2024-02-26T11:58:43;7.20;75.51
66670;DHT22;53568;52.164;4.472;2024-02-26T12:01:41;7.29;75.15
66670;DHT22;53568;52.164;4.472;2024-02-26T12:04:15;7.31;74.65
66670;DHT22;53568;52.164;4.472;2024-02-26T12:06:52;7.39;74.70
66670;DHT22;53568;52.164;4.472;2024-02-26T12:09:31;7.49;74.42
66670;DHT22;53568;52.164;4.472;2024-02-26T12:11:57;7.49;74.47
66670;DHT22;53568;52.164;4.472;2024-02-26T12:14:26;7.56;74.06
66670;DHT22;53568;52.164;4.472;2024-02-26T12:16:52;7.53;73.66
66670;DHT22;53568;52.164;4.472;2024-02-26T12:19:18;7.67;73.31
66670;DHT22;53568;52.164;4.472;2024-02-26T12:21:44;7.61;73.22
66670;DHT22;53568;52.164;4.472;2024-02-26T12:24:11;7.60;72.83
66670;DHT22;53568;52.164;4.472;2024-02-26T12:26:39;7.60;72.91
66670;DHT22;53568;52.164;4.472;2024-02-26T12:29:05;7.54;72.91
66670;DHT22;53568;52.164;4.472;2024-02-26T12:31:32;7.75;72.93
66670;DHT22;53568;52.164;4.472;2024-02-26T12:34:02;7.64;72.92
66670;DHT22;53568;52.164;4.472;2024-02-26T12:36:28;7.69;72.78
66670;DHT22;53568;52.164;4.472;2024-02-26T12:38:54;7.40;72.97
66670;DHT22;53568;52.164;4.472;2024-02-26T12:41:21;7.50;72.84
66670;DHT22;53568;52.164;4.472;2024-02-26T12:43:47;7.64;72.48
66670;DHT22;53568;52.164;4.472;2024-02-26T12:46:13;7.63;72.48
66670;DHT22;53568;52.164;4.472;2024-02-26T12:48:43;7.63;72.81
66670;DHT22;53568;52.164;4.472;2024-02-26T12:51:12;7.67;73.14
66670;DHT22;53568;52.164;4.472;2024-02-26T12:53:39;7.83;72.35
66670;DHT22;53568;52.164;4.472;2024-02-26T12:56:08;7.74;72.27
66670;DHT22;53568;52.164;4.472;2024-02-26T12:58:35;7.81;72.30
66670;DHT22;53568;52.164;4.472;2024-02-26T13:01:03;7.63;72.54
66670;DHT22;53568;52.164;4.472;2024-02-26T13:03:30;7.64;72.90
66670;DHT22;53568;52.164;4.472;2024-02-26T13:05:56;7.57;73.14
66670;DHT22;53568;52.164;4.472;2024-02-26T13:08:22;7.60;72.94
66670;DHT22;53568;52.164;4.472;2024-02-26T13:10:49;7.59;73.13
66670;DHT22;53568;52.164;4.472;2024-02-26T13:13:17;7.49;73.15
66670;DHT22;53568;52.164;4.472;2024-02-26T13:15:46;7.66;73.36
66670;DHT22;53568;52.164;4.472;2024-02-26T13:18:13;7.71;73.22
66670;DHT22;53568;52.164;4.472;2024-02-26T13:20:40;7.84;73.55
66670;DHT22;53568;52.164;4.472;2024-02-26T13:23:07;7.78;73.04
66670;DHT22;53568;52.164;4.472;2024-02-26T13:25:34;7.75;72.60
66670;DHT22;53568;52.164;4.472;2024-02-26T13:28:07;7.75;73.21
66670;DHT22;53568;52.164;4.472;2024-02-26T13:30:33;7.67;72.98
66670;DHT22;53568;52.164;4.472;2024-02-26T13:33:07;7.60;73.48
66670;DHT22;53568;52.164;4.472;2024-02-26T13:35:34;7.49;73.56
66670;DHT22;53568;52.164;4.472;2024-02-26T13:38:00;7.49;73.40
66670;DHT22;53568;52.164;4.472;2024-02-26T13:40:26;7.61;72.99
66670;DHT22;53568;52.164;4.472;2024-02-26T13:42:51;7.67;72.97
66670;DHT22;53568;52.164;4.472;2024-02-26T13:45:18;7.63;73.11
66670;DHT22;53568;52.164;4.472;2024-02-26T13:47:43;7.61;73.44
66670;DHT22;53568;52.164;4.472;2024-02-26T13:50:09;7.60;73.31
66670;DHT22;53568;52.164;4.472;2024-02-26T13:52:35;7.63;73.67
66670;DHT22;53568;52.164;4.472;2024-02-26T13:55:01;7.63;73.29
66670;DHT22;53568;52.164;4.472;2024-02-26T13:57:27;7.60;73.11
66670;DHT22;53568;52.164;4.472;2024-02-26T13:59:54;7.51;73.25
66670;DHT22;53568;52.164;4.472;2024-02-26T14:02:20;7.59;73.41
66670;DHT22;53568;52.164;4.472;2024-02-26T14:04:46;7.44;73.65
66670;DHT22;53568;52.164;4.472;2024-02-26T14:07:12;7.43;73.41
66670;DHT22;53568;52.164;4.472;2024-02-26T14:09:38;7.34;73.46
66670;DHT22;53568;52.164;4.472;2024-02-26T14:12:04;7.46;73.69
66670;DHT22;53568;52.164;4.472;2024-02-26T14:14:30;7.50;73.21
66670;DHT22;53568;52.164;4.472;2024-02-26T14:16:58;7.43;73.34
66670;DHT22;53568;52.164;4.472;2024-02-26T14:19:25;7.54;73.29
66670;DHT22;53568;52.164;4.472;2024-02-26T14:21:51;7.61;72.90
66670;DHT22;53568;52.164;4.472;2024-02-26T14:24:16;7.54;72.82
66670;DHT22;53568;52.164;4.472;2024-02-26T14:26:42;7.50;72.98
66670;DHT22;53568;52.164;4.472;2024-02-26T14:29:08;7.42;73.08
66670;DHT22;53568;52.164;4.472;2024-02-26T14:31:33;7.57;72.90
66670;DHT22;53568;52.164;4.472;2024-02-26T14:33:59;7.37;72.76
66670;DHT22;53568;52.164;4.472;2024-02-26T14:36:25;7.47;72.70
66670;DHT22;53568;52.164;4.472;2024-02-26T14:38:51;7.54;72.45
66670;DHT22;53568;52.164;4.472;2024-02-26T14:41:17;7.56;72.30
66670;DHT22;53568;52.164;4.472;2024-02-26T14:43:42;7.49;73.02
66670;DHT22;53568;52.164;4.472;2024-02-26T14:46:08;7.51;72.73
66670;DHT22;53568;52.164;4.472;2024-02-26T14:48:33;7.42;72.56
66670;DHT22;53568;52.164;4.472;2024-02-26T14:50:59;7.44;72.59
66670;DHT22;53568;52.164;4.472;2024-02-26T14:53:25;7.56;72.56
66670;DHT22;53568;52.164;4.472;2024-02-26T14:55:51;7.59;72.71
66670;DHT22;53568;52.164;4.472;2024-02-26T14:58:17;7.69;72.32
66670;DHT22;53568;52.164;4.472;2024-02-26T15:00:42;7.71;72.51
66670;DHT22;53568;52.164;4.472;2024-02-26T15:03:08;7.57;72.45
66670;DHT22;53568;52.164;4.472;2024-02-26T15:05:34;7.64;72.25
66670;DHT22;53568;52.164;4.472;2024-02-26T15:08:00;7.67;72.15
66670;DHT22;53568;52.164;4.472;2024-02-26T15:10:25;7.74;72.14
66670;DHT22;53568;52.164;4.472;2024-02-26T15:12:51;7.63;72.44
66670;DHT22;53568;52.164;4.472;2024-02-26T15:15:22;7.64;72.57
66670;DHT22;53568;52.164;4.472;2024-02-26T15:17:49;7.63;72.49
66670;DHT22;53568;52.164;4.472;2024-02-26T15:20:15;7.47;72.97
66670;DHT22;53568;52.164;4.472;2024-02-26T15:22:41;7.59;73.33
66670;DHT22;53568;52.164;4.472;2024-02-26T15:25:07;7.57;73.35
66670;DHT22;53568;52.164;4.472;2024-02-26T15:27:33;7.59;73.65
66670;DHT22;53568;52.164;4.472;2024-02-26T15:29:59;7.74;73.60
66670;DHT22;53568;52.164;4.472;2024-02-26T15:32:25;7.73;73.51
66670;DHT22;53568;52.164;4.472;2024-02-26T15:34:55;7.63;74.17
66670;DHT22;53568;52.164;4.472;2024-02-26T15:37:21;7.59;74.32
66670;DHT22;53568;52.164;4.472;2024-02-26T15:39:47;7.61;74.32
66670;DHT22;53568;52.164;4.472;2024-02-26T15:42:13;7.59;74.38
66670;DHT22;53568;52.164;4.472;2024-02-26T15:44:39;7.39;74.13
66670;DHT22;53568;52.164;4.472;2024-02-26T15:47:06;7.34;74.73